Time;durP1;ratioP1;P1;durP2;ratioP2;P2;SDS_P1;SDS_P2;PMS_P1;PMS_P2;Temp;Humidity;BMP_temperature;BMP_pressure;BME280_temperature;BME280_humidity;BME280_pressure;Samples;Min_cycle;Max_cycle;Signal;HPM_P1;HPM_P2
2024/01/20 00:00:37;;;;;;;13.52;6.60;;;-0.60;61.70;;;;;;4961566;28;116568;-80
2024/01/20 00:03:04;;;;;;;11.82;6.43;;;-0.60;61.80;;;;;;4945598;28;115908;-80
2024/01/20 00:05:32;;;;;;;15.68;7.20;;;-0.60;61.90;;;;;;4947736;28;114434;-80
2024/01/20 00:08:00;;;;;;;15.50;7.72;;;-0.60;61.80;;;;;;4947734;28;115087;-79
2024/01/20 00:10:27;;;;;;;11.68;5.80;;;-0.60;61.90;;;;;;4945949;28;115712;-80
2024/01/20 00:12:55;;;;;;;14.52;6.97;;;-0.60;61.90;;;;;;4946457;28;115265;-81
2024/01/20 00:15:23;;;;;;;15.90;7.15;;;-0.60;61.90;;;;;;4962281;28;114721;-79
2024/01/20 00:17:50;;;;;;;16.05;6.68;;;-0.60;61.90;;;;;;4947973;28;114706;-80
2024/01/20 00:20:19;;;;;;;14.93;7.10;;;-0.60;62.00;;;;;;4947023;28;116156;-80
2024/01/20 00:22:48;;;;;;;12.93;6.80;;;-0.60;61.90;;;;;;4946905;28;115113;-80
2024/01/20 00:25:16;;;;;;;11.98;6.10;;;-0.50;61.70;;;;;;4945981;28;114779;-81
2024/01/20 00:27:44;;;;;;;15.43;6.63;;;-0.50;61.70;;;;;;4929886;28;114624;-81
2024/01/20 00:30:11;;;;;;;14.25;6.13;;;-0.60;61.80;;;;;;4929218;28;118536;-80
2024/01/20 00:32:39;;;;;;;12.23;6.05;;;-0.60;61.70;;;;;;4945603;28;114819;-81
2024/01/20 00:35:07;;;;;;;11.75;5.95;;;-0.60;61.80;;;;;;4962130;28;114499;-81
2024/01/20 00:37:39;;;;;;;15.68;6.72;;;-0.60;61.70;;;;;;4947743;28;114375;-80
2024/01/20 00:40:10;;;;;;;13.50;6.35;;;-0.60;61.70;;;;;;4968665;28;115323;-81
2024/01/20 00:42:37;;;;;;;11.88;5.82;;;-0.60;61.90;;;;;;4984379;28;115167;-79
2024/01/20 00:45:05;;;;;;;13.38;6.53;;;-0.50;62.00;;;;;;4952448;28;114654;-80
2024/01/20 00:47:33;;;;;;;12.27;6.03;;;-0.40;61.90;;;;;;4948798;28;115283;-79
2024/01/20 00:50:06;;;;;;;15.15;6.85;;;-0.40;62.10;;;;;;4945226;28;118708;-81
2024/01/20 00:52:34;;;;;;;15.85;7.80;;;-0.40;62.00;;;;;;4945427;28;114845;-80
2024/01/20 00:55:01;;;;;;;17.50;7.90;;;-0.40;61.90;;;;;;4945592;28;114714;-80
2024/01/20 00:57:28;;;;;;;17.10;8.20;;;-0.40;61.70;;;;;;4933013;28;114263;-81
2024/01/20 00:59:56;;;;;;;16.83;7.50;;;-0.30;61.80;;;;;;4946006;28;115120;-81
2024/01/20 01:02:25;;;;;;;20.52;8.82;;;-0.30;61.90;;;;;;4946215;28;114721;-82
2024/01/20 01:04:52;;;;;;;15.88;7.93;;;-0.30;61.90;;;;;;4945772;28;114704;-81
2024/01/20 01:07:19;;;;;;;21.17;8.70;;;-0.30;61.80;;;;;;4945653;28;114390;-81
2024/01/20 01:09:48;;;;;;;19.42;8.82;;;-0.30;61.90;;;;;;4928232;28;118433;-81
2024/01/20 01:12:15;;;;;;;25.02;10.05;;;-0.30;61.90;;;;;;4944615;28;117928;-81
2024/01/20 01:14:43;;;;;;;17.13;8.07;;;-0.20;61.90;;;;;;4946859;28;114460;-81
2024/01/20 01:17:10;;;;;;;15.77;7.43;;;-0.20;61.80;;;;;;4962183;28;114758;-82
2024/01/20 01:19:37;;;;;;;17.58;8.23;;;-0.20;61.70;;;;;;4927621;28;117339;-80
2024/01/20 01:22:05;;;;;;;15.88;8.55;;;-0.20;61.70;;;;;;4944473;28;114916;-81
2024/01/20 01:24:32;;;;;;;17.40;7.78;;;-0.20;61.70;;;;;;4944767;28;114620;-80
2024/01/20 01:27:00;;;;;;;20.45;8.95;;;-0.30;61.60;;;;;;4961415;28;115105;-80
2024/01/20 01:29:27;;;;;;;17.80;9.15;;;-0.30;61.40;;;;;;4944237;28;116544;-81
2024/01/20 01:31:55;;;;;;;16.70;8.45;;;-0.30;61.40;;;;;;4943960;28;116396;-81
2024/01/20 01:34:22;;;;;;;17.58;7.82;;;-0.30;61.40;;;;;;4944748;28;114379;-81
2024/01/20 01:36:49;;;;;;;16.05;7.38;;;-0.40;61.20;;;;;;4945072;28;114483;-81
2024/01/20 01:39:17;;;;;;;17.40;7.13;;;-0.40;61.20;;;;;;4960181;28;115583;-80
2024/01/20 01:41:45;;;;;;;18.63;7.38;;;-0.40;61.30;;;;;;4943571;28;114688;-81
2024/01/20 01:44:12;;;;;;;19.00;8.48;;;-0.50;61.40;;;;;;4944988;28;114651;-81
2024/01/20 01:46:39;;;;;;;17.73;8.13;;;-0.50;61.50;;;;;;4945053;28;114477;-81
2024/01/20 01:49:07;;;;;;;16.08;7.07;;;-0.40;61.60;;;;;;4943611;28;115174;-80
2024/01/20 01:51:35;;;;;;;19.75;8.02;;;-0.30;61.80;;;;;;4943983;28;115097;-80
2024/01/20 01:54:03;;;;;;;19.80;8.75;;;-0.30;61.80;;;;;;4945980;28;114519;-81
2024/01/20 01:56:30;;;;;;;19.85;8.88;;;-0.30;61.90;;;;;;4946126;28;114733;-81
2024/01/20 01:58:58;;;;;;;22.80;8.45;;;-0.20;61.90;;;;;;4959138;28;115252;-80
2024/01/20 02:01:28;;;;;;;16.25;8.20;;;-0.20;62.00;;;;;;4959646;28;118042;-80
2024/01/20 02:03:56;;;;;;;18.75;8.65;;;-0.20;61.80;;;;;;4943972;28;114467;-80
2024/01/20 02:06:23;;;;;;;20.55;9.68;;;-0.10;61.70;;;;;;4945015;28;114425;-80
2024/01/20 02:08:51;;;;;;;20.10;8.70;;;-0.10;61.70;;;;;;4942714;28;115696;-81
2024/01/20 02:11:18;;;;;;;22.17;9.82;;;-0.10;61.70;;;;;;4944328;28;116584;-81
2024/01/20 02:13:46;;;;;;;20.30;9.98;;;-0.10;61.70;;;;;;4945302;28;114323;-80
2024/01/20 02:16:13;;;;;;;22.33;10.63;;;-0.10;61.70;;;;;;4945730;28;114516;-80
2024/01/20 02:18:40;;;;;;;29.55;11.38;;;-0.10;61.70;;;;;;4959419;28;116814;-79
2024/01/20 02:21:08;;;;;;;24.70;10.85;;;-0.10;61.70;;;;;;4944842;28;114776;-79
2024/01/20 02:23:39;;;;;;;29.08;12.00;;;-0.10;61.80;;;;;;4944444;28;114707;-80
2024/01/20 02:26:07;;;;;;;29.05;13.07;;;-0.10;61.60;;;;;;4960199;28;114550;-80
2024/01/20 02:28:34;;;;;;;23.30;11.95;;;-0.20;61.50;;;;;;4924463;28;116129;-81
2024/01/20 02:31:02;;;;;;;25.80;13.27;;;-0.20;61.70;;;;;;4939188;28;114730;-81
2024/01/20 02:33:29;;;;;;;22.02;11.18;;;-0.20;61.80;;;;;;4939362;28;114328;-82
2024/01/20 02:35:56;;;;;;;20.27;10.30;;;-0.20;61.80;;;;;;4911753;28;114613;-82
2024/01/20 02:38:24;;;;;;;17.70;9.48;;;-0.20;61.70;;;;;;4930109;28;115079;-81
2024/01/20 02:40:53;;;;;;;15.02;6.55;;;-0.20;61.70;;;;;;4925479;28;114760;-81
2024/01/20 02:43:20;;;;;;;13.95;7.22;;;-0.30;61.40;;;;;;4908913;28;114880;-82
2024/01/20 02:45:48;;;;;;;9.63;5.38;;;-0.30;61.50;;;;;;4937349;28;114495;-81
2024/01/20 02:48:16;;;;;;;15.20;5.80;;;-0.40;61.50;;;;;;4943763;28;115637;-81
2024/01/20 02:50:45;;;;;;;10.00;4.88;;;-0.40;61.40;;;;;;4944879;28;114612;-81
2024/01/20 02:53:12;;;;;;;10.85;5.45;;;-0.50;61.50;;;;;;4945970;28;114720;-81
2024/01/20 02:55:40;;;;;;;18.20;7.18;;;-0.40;61.40;;;;;;4933001;28;114634;-81
2024/01/20 02:58:07;;;;;;;11.43;5.30;;;-0.50;61.30;;;;;;4947306;28;115099;-82
2024/01/20 03:00:34;;;;;;;9.98;4.93;;;-0.50;61.20;;;;;;4946937;28;114525;-79
2024/01/20 03:03:02;;;;;;;12.50;5.50;;;-0.60;61.10;;;;;;4947610;28;114641;-80
2024/01/20 03:05:29;;;;;;;11.35;4.70;;;-0.60;61.10;;;;;;4949437;28;114439;-80
2024/01/20 03:07:59;;;;;;;14.05;5.38;;;-0.70;61.00;;;;;;4948034;28;115050;-80
2024/01/20 03:10:26;;;;;;;9.75;5.03;;;-0.80;61.20;;;;;;4947891;28;114657;-79
2024/01/20 03:12:54;;;;;;;8.80;4.63;;;-0.80;61.20;;;;;;4948816;28;114548;-80
2024/01/20 03:15:21;;;;;;;8.15;4.90;;;-0.80;61.20;;;;;;4947212;28;115112;-81
2024/01/20 03:17:48;;;;;;;11.20;4.72;;;-0.90;61.20;;;;;;4947641;28;115273;-81
2024/01/20 03:20:16;;;;;;;12.27;5.53;;;-0.80;61.30;;;;;;4947048;28;114636;-79
2024/01/20 03:22:43;;;;;;;12.73;5.72;;;-0.90;61.40;;;;;;4931233;28;114684;-80
2024/01/20 03:25:10;;;;;;;10.20;5.50;;;-0.80;61.50;;;;;;4930751;28;114669;-80
2024/01/20 03:27:37;;;;;;;11.98;5.78;;;-0.90;61.30;;;;;;4958074;28;115123;-81
2024/01/20 03:30:06;;;;;;;13.20;5.10;;;-1.00;61.20;;;;;;4965971;28;115032;-81
2024/01/20 03:32:33;;;;;;;11.13;5.68;;;-1.00;61.10;;;;;;4983334;28;114582;-81
2024/01/20 03:35:01;;;;;;;10.98;5.03;;;-1.10;61.20;;;;;;4967553;28;115333;-80
2024/01/20 03:37:29;;;;;;;10.90;5.50;;;-1.10;61.30;;;;;;4966538;28;116529;-81
2024/01/20 03:39:56;;;;;;;10.35;5.60;;;-1.10;61.30;;;;;;4949662;28;114719;-81
2024/01/20 03:42:24;;;;;;;10.82;5.45;;;-1.10;61.40;;;;;;4966225;28;114379;-81
2024/01/20 03:44:51;;;;;;;9.43;4.90;;;-1.10;61.50;;;;;;4966614;28;115536;-81
2024/01/20 03:47:18;;;;;;;11.50;5.10;;;-1.10;61.70;;;;;;4948897;28;118827;-81
2024/01/20 03:49:46;;;;;;;9.55;4.68;;;-1.10;61.70;;;;;;4948674;28;114779;-80
2024/01/20 03:52:13;;;;;;;10.60;5.15;;;-1.10;61.60;;;;;;4949763;28;114522;-79
2024/01/20 03:54:41;;;;;;;12.02;5.68;;;-1.20;61.60;;;;;;4949480;28;114545;-80
2024/01/20 03:57:08;;;;;;;14.70;5.53;;;-1.20;61.60;;;;;;4949087;28;115230;-80
2024/01/20 03:59:36;;;;;;;14.57;7.38;;;-1.20;61.60;;;;;;4966215;28;115308;-80
2024/01/20 04:02:04;;;;;;;16.40;8.10;;;-1.20;61.70;;;;;;4982515;28;114572;-80
2024/01/20 04:04:31;;;;;;;18.85;8.82;;;-1.30;61.70;;;;;;4966384;28;115072;-80
2024/01/20 04:06:59;;;;;;;21.20;8.93;;;-1.30;61.80;;;;;;4966124;28;115011;-79
2024/01/20 04:09:26;;;;;;;23.55;10.63;;;-1.30;61.80;;;;;;4966693;28;114681;-80
2024/01/20 04:11:54;;;;;;;23.60;10.63;;;-1.30;61.80;;;;;;4982175;28;114601;-80
2024/01/20 04:14:21;;;;;;;25.95;11.32;;;-1.30;61.90;;;;;;4989821;28;114944;-81
2024/01/20 04:16:49;;;;;;;25.27;11.98;;;-1.40;61.90;;;;;;5001448;28;114319;-80
2024/01/20 04:19:16;;;;;;;21.85;10.68;;;-1.40;62.00;;;;;;4982275;28;116955;-80
2024/01/20 04:21:44;;;;;;;22.58;10.80;;;-1.40;62.10;;;;;;4967049;28;114384;-79
2024/01/20 04:24:11;;;;;;;23.40;11.25;;;-1.40;62.20;;;;;;4965226;28;114593;-80
2024/01/20 04:26:38;;;;;;;22.38;12.15;;;-1.50;62.20;;;;;;4965643;28;115715;-80
2024/01/20 04:29:06;;;;;;;28.10;13.13;;;-1.50;62.30;;;;;;4981200;28;114801;-80
2024/01/20 04:31:33;;;;;;;22.75;11.52;;;-1.50;62.30;;;;;;4965620;28;114529;-80
2024/01/20 04:34:00;;;;;;;22.00;10.93;;;-1.50;62.30;;;;;;4982783;28;114682;-80
2024/01/20 04:36:28;;;;;;;23.73;10.52;;;-1.50;62.40;;;;;;4965472;28;116067;-80
2024/01/20 04:38:55;;;;;;;20.63;11.02;;;-1.50;62.60;;;;;;4965990;28;115015;-79
2024/01/20 04:41:22;;;;;;;22.20;10.80;;;-1.60;62.60;;;;;;4966095;28;114955;-80
2024/01/20 04:43:50;;;;;;;27.35;11.73;;;-1.60;62.60;;;;;;4965188;28;114968;-80
2024/01/20 04:46:18;;;;;;;28.73;12.55;;;-1.60;62.50;;;;;;4965873;28;115542;-80
2024/01/20 04:48:46;;;;;;;21.85;10.70;;;-1.60;62.40;;;;;;4980912;28;115709;-80
2024/01/20 04:51:13;;;;;;;21.08;10.45;;;-1.70;62.20;;;;;;4981711;28;114805;-79
2024/01/20 04:53:40;;;;;;;21.70;10.75;;;-1.80;62.20;;;;;;4965402;28;114529;-80
2024/01/20 04:56:08;;;;;;;17.90;9.20;;;-1.80;62.50;;;;;;4965470;28;115028;-80
2024/01/20 04:58:36;;;;;;;19.90;10.00;;;-1.80;62.60;;;;;;4964736;28;114638;-80
2024/01/20 05:01:06;;;;;;;25.38;10.98;;;-1.80;62.80;;;;;;4981330;28;114561;-80
2024/01/20 05:03:34;;;;;;;18.95;9.50;;;-1.80;62.80;;;;;;4965393;28;114471;-81
2024/01/20 05:06:04;;;;;;;21.42;10.73;;;-1.80;62.90;;;;;;4964889;28;116167;-80
2024/01/20 05:08:32;;;;;;;22.02;9.90;;;-1.80;62.90;;;;;;4931888;28;115307;-80
2024/01/20 05:10:59;;;;;;;18.70;9.75;;;-1.80;62.90;;;;;;4965313;28;114653;-80
2024/01/20 05:13:27;;;;;;;16.85;8.48;;;-1.90;62.70;;;;;;4965131;28;114695;-80
2024/01/20 05:15:56;;;;;;;17.48;9.52;;;-1.90;62.80;;;;;;4965155;28;115274;-80
2024/01/20 05:18:23;;;;;;;17.65;8.23;;;-1.90;62.90;;;;;;4964960;28;114652;-80
2024/01/20 05:20:50;;;;;;;21.13;9.57;;;-1.90;63.00;;;;;;4949219;28;114795;-81
2024/01/20 05:23:18;;;;;;;16.50;8.07;;;-1.90;62.90;;;;;;4982180;28;114520;-81
2024/01/20 05:25:47;;;;;;;16.00;7.63;;;-1.90;62.90;;;;;;4964497;28;115284;-80
2024/01/20 05:28:14;;;;;;;13.70;6.97;;;-1.90;63.00;;;;;;4962749;28;117375;-80
2024/01/20 05:30:43;;;;;;;13.30;6.57;;;-1.90;63.00;;;;;;4964901;28;114655;-80
2024/01/20 05:33:10;;;;;;;15.13;7.10;;;-1.90;62.80;;;;;;4966144;28;114632;-80
2024/01/20 05:35:38;;;;;;;20.65;5.60;;;-2.00;62.80;;;;;;4964753;28;115348;-81
2024/01/20 05:38:06;;;;;;;13.90;5.32;;;-1.90;62.80;;;;;;4947711;28;116592;-81
2024/01/20 05:40:34;;;;;;;12.57;5.35;;;-1.90;62.80;;;;;;4965902;28;114616;-81
2024/01/20 05:43:01;;;;;;;10.40;4.97;;;-1.90;62.70;;;;;;4964436;28;114706;-81
2024/01/20 05:45:28;;;;;;;15.35;5.30;;;-2.00;62.60;;;;;;4964905;28;115115;-81
2024/01/20 05:47:56;;;;;;;12.05;5.20;;;-2.00;62.60;;;;;;4964420;28;114982;-81
2024/01/20 05:50:23;;;;;;;10.43;4.85;;;-2.00;62.50;;;;;;4948398;28;114462;-80
2024/01/20 05:52:50;;;;;;;10.30;5.10;;;-2.00;62.50;;;;;;4948299;28;114606;-81
2024/01/20 05:55:18;;;;;;;8.57;4.43;;;-2.00;62.60;;;;;;4949425;28;115115;-79
2024/01/20 05:57:50;;;;;;;9.40;4.90;;;-2.00;62.60;;;;;;4965868;28;114685;-83
2024/01/20 06:00:19;;;;;;;9.88;4.90;;;-2.00;62.60;;;;;;4990452;28;114490;-81
2024/01/20 06:02:46;;;;;;;10.35;5.57;;;-2.00;62.60;;;;;;4949242;28;114423;-80
2024/01/20 06:05:14;;;;;;;13.18;6.85;;;-1.90;62.60;;;;;;4963812;28;115111;-81
2024/01/20 06:07:41;;;;;;;13.55;6.75;;;-1.90;62.50;;;;;;4964250;28;114627;-81
2024/01/20 06:10:09;;;;;;;12.23;6.88;;;-1.90;62.60;;;;;;4965883;28;114398;-81
2024/01/20 06:12:36;;;;;;;14.68;7.38;;;-1.90;62.70;;;;;;4980705;28;114633;-82
2024/01/20 06:15:04;;;;;;;16.77;8.10;;;-1.90;62.70;;;;;;4963137;28;115055;-80
2024/01/20 06:17:31;;;;;;;19.90;8.32;;;-1.90;62.70;;;;;;4979672;28;114939;-80
2024/01/20 06:20:03;;;;;;;17.15;7.30;;;-1.90;62.70;;;;;;4964981;28;114472;-80
2024/01/20 06:22:31;;;;;;;18.92;7.43;;;-1.90;62.90;;;;;;4963669;28;114805;-80
2024/01/20 06:24:58;;;;;;;17.27;8.93;;;-1.90;63.00;;;;;;4964320;28;115108;-80
2024/01/20 06:27:25;;;;;;;19.20;8.27;;;-1.90;63.00;;;;;;4962137;28;114981;-80
2024/01/20 06:29:53;;;;;;;19.25;8.32;;;-1.80;63.00;;;;;;4947894;28;115302;-81
2024/01/20 06:32:20;;;;;;;23.40;10.82;;;-1.80;62.90;;;;;;4965231;28;114561;-80
2024/01/20 06:34:47;;;;;;;20.10;9.70;;;-1.90;63.00;;;;;;4946900;28;115297;-82
2024/01/20 06:37:15;;;;;;;18.38;9.82;;;-1.80;63.10;;;;;;4946997;28;118815;-81
2024/01/20 06:39:42;;;;;;;22.95;10.38;;;-1.80;63.10;;;;;;4947662;28;114433;-81
2024/01/20 06:42:11;;;;;;;23.67;11.02;;;-1.80;63.10;;;;;;4965211;28;114982;-82
2024/01/20 06:44:39;;;;;;;20.15;10.23;;;-1.80;63.10;;;;;;4961914;28;118382;-82
2024/01/20 06:47:07;;;;;;;21.10;11.43;;;-1.90;63.10;;;;;;4962854;28;114752;-81
2024/01/20 06:49:38;;;;;;;18.58;10.07;;;-1.80;63.10;;;;;;4963396;28;114407;-81
2024/01/20 06:52:06;;;;;;;23.50;9.90;;;-1.80;63.20;;;;;;4963294;28;114842;-81
2024/01/20 06:54:33;;;;;;;20.90;9.93;;;-1.90;63.10;;;;;;4946293;28;115041;-81
2024/01/20 06:57:01;;;;;;;19.13;10.10;;;-1.90;62.80;;;;;;4957980;28;114734;-81
2024/01/20 06:59:28;;;;;;;26.52;10.60;;;-1.90;62.90;;;;;;4963932;28;114405;-82
2024/01/20 07:01:55;;;;;;;23.70;10.30;;;-1.90;63.00;;;;;;4980269;28;114447;-82
2024/01/20 07:04:23;;;;;;;22.70;10.23;;;-1.90;63.00;;;;;;4963908;28;115036;-82
2024/01/20 07:06:50;;;;;;;16.02;8.02;;;-1.90;63.10;;;;;;4962652;28;115113;-83
2024/01/20 07:09:18;;;;;;;19.00;8.68;;;-1.90;63.10;;;;;;4962907;28;115152;-82
2024/01/20 07:11:47;;;;;;;16.00;8.48;;;-1.90;63.20;;;;;;4964650;28;114743;-82
2024/01/20 07:14:15;;;;;;;18.88;8.60;;;-1.80;63.10;;;;;;4962176;28;115062;-83
2024/01/20 07:16:42;;;;;;;16.95;8.55;;;-1.80;63.00;;;;;;4978843;28;114620;-82
2024/01/20 07:19:11;;;;;;;18.15;8.88;;;-1.70;63.10;;;;;;4964882;28;114695;-83
2024/01/20 07:21:39;;;;;;;18.10;8.95;;;-1.50;62.90;;;;;;4966052;28;114944;-81
2024/01/20 07:24:06;;;;;;;16.92;8.68;;;-1.50;62.70;;;;;;4966160;28;115075;-81
2024/01/20 07:26:33;;;;;;;11.02;6.78;;;-1.40;62.70;;;;;;4981427;28;115824;-81
2024/01/20 07:29:01;;;;;;;15.32;7.15;;;-1.20;62.50;;;;;;4965133;28;114531;-82
2024/01/20 07:31:28;;;;;;;17.58;7.70;;;-1.10;62.50;;;;;;4965194;28;114767;-82
2024/01/20 07:34:13;;;;;;;16.88;7.32;;;-1.00;62.10;;;;;;4977109;28;117922;-83
2024/01/20 07:36:41;;;;;;;16.17;8.20;;;-0.90;61.80;;;;;;4962743;28;115256;-82
2024/01/20 07:39:08;;;;;;;14.13;6.60;;;-0.80;61.70;;;;;;4981390;28;114664;-83
2024/01/20 07:41:36;;;;;;;16.17;8.05;;;-0.80;61.40;;;;;;4983297;28;114503;-83
2024/01/20 07:44:04;;;;;;;15.18;7.18;;;-0.70;61.40;;;;;;4967229;28;114998;-83
2024/01/20 07:46:31;;;;;;;17.60;8.52;;;-0.60;61.30;;;;;;4967791;28;114607;-82
2024/01/20 07:48:59;;;;;;;15.00;7.60;;;-0.50;60.90;;;;;;5002817;28;115029;-81
2024/01/20 07:51:29;;;;;;;16.20;8.38;;;-0.40;60.70;;;;;;4977749;28;114812;-81
2024/01/20 07:53:56;;;;;;;18.95;9.70;;;-0.30;60.60;;;;;;4966107;28;114620;-82
2024/01/20 07:56:24;;;;;;;17.60;8.80;;;-0.20;60.50;;;;;;4965500;28;118018;-81
2024/01/20 07:58:51;;;;;;;20.65;9.25;;;0.00;60.30;;;;;;4981979;28;114762;-82
2024/01/20 08:01:19;;;;;;;16.60;9.23;;;0.10;59.90;;;;;;4966562;28;114986;-82
2024/01/20 08:03:46;;;;;;;15.38;8.02;;;0.20;59.60;;;;;;4966776;28;115303;-82
2024/01/20 08:06:13;;;;;;;18.27;7.70;;;0.20;59.30;;;;;;4965475;28;115177;-81
2024/01/20 08:08:42;;;;;;;16.30;8.68;;;0.30;59.00;;;;;;4969010;28;114822;-81
2024/01/20 08:11:10;;;;;;;16.40;8.02;;;0.30;58.90;;;;;;4983634;28;115171;-82
2024/01/20 08:13:37;;;;;;;19.35;8.52;;;0.40;59.00;;;;;;4964921;28;115311;-81
2024/01/20 08:16:06;;;;;;;14.35;7.82;;;0.50;59.00;;;;;;4982042;28;115683;-81
2024/01/20 08:18:33;;;;;;;13.32;7.53;;;0.60;58.80;;;;;;4966453;28;114628;-81
2024/01/20 08:21:10;;;;;;;16.92;8.75;;;0.70;59.10;;;;;;4955168;28;114482;-81
2024/01/20 08:23:37;;;;;;;16.33;7.85;;;0.90;59.20;;;;;;4945564;28;115270;-81
2024/01/20 08:26:04;;;;;;;16.10;8.35;;;1.00;58.70;;;;;;4965665;28;114966;-81
2024/01/20 08:28:32;;;;;;;15.43;8.05;;;1.10;58.80;;;;;;4981881;28;114467;-81
2024/01/20 08:30:59;;;;;;;16.63;9.25;;;1.10;58.40;;;;;;4966351;28;114490;-81
2024/01/20 08:33:27;;;;;;;16.98;8.93;;;1.10;58.70;;;;;;4981751;28;115639;-81
2024/01/20 08:35:55;;;;;;;16.67;8.48;;;1.10;58.50;;;;;;4964078;28;117992;-82
2024/01/20 08:38:22;;;;;;;16.55;8.73;;;1.20;58.40;;;;;;4981138;28;114805;-81
2024/01/20 08:40:49;;;;;;;12.80;7.20;;;1.20;57.90;;;;;;4962803;28;114769;-81
2024/01/20 08:43:17;;;;;;;16.75;8.90;;;1.30;57.70;;;;;;4967700;28;115161;-80
2024/01/20 08:45:45;;;;;;;15.10;8.35;;;1.40;57.70;;;;;;4955220;28;116862;-80
2024/01/20 08:48:12;;;;;;;17.80;9.57;;;1.40;57.40;;;;;;4964468;28;117269;-82
2024/01/20 08:50:40;;;;;;;14.70;8.57;;;1.50;57.00;;;;;;4929694;28;114713;-82
2024/01/20 08:53:08;;;;;;;16.27;8.25;;;1.50;57.00;;;;;;4962654;28;119066;-82
2024/01/20 08:55:35;;;;;;;20.02;9.50;;;1.60;56.70;;;;;;4953533;28;116093;-82
2024/01/20 08:58:06;;;;;;;15.77;8.32;;;1.60;56.70;;;;;;4954657;28;114464;-81
2024/01/20 09:00:38;;;;;;;13.77;7.78;;;1.60;56.50;;;;;;4958530;28;115034;-81
2024/01/20 09:03:05;;;;;;;15.90;8.18;;;1.70;56.60;;;;;;4954108;28;118545;-82
2024/01/20 09:05:33;;;;;;;15.05;8.18;;;1.70;56.40;;;;;;4949396;28;114775;-81
2024/01/20 09:08:09;;;;;;;14.65;8.57;;;1.80;55.90;;;;;;4962700;28;114636;-81
2024/01/20 09:10:37;;;;;;;15.27;8.18;;;1.80;56.00;;;;;;4979202;28;114749;-82
2024/01/20 09:13:04;;;;;;;16.70;8.40;;;1.80;56.20;;;;;;4967706;28;115104;-81
2024/01/20 09:15:32;;;;;;;15.10;8.18;;;1.80;55.90;;;;;;4982143;28;114678;-81
2024/01/20 09:17:59;;;;;;;16.73;8.73;;;1.80;55.80;;;;;;4967729;28;114541;-82
2024/01/20 09:20:27;;;;;;;14.88;7.97;;;1.70;55.50;;;;;;4982865;28;114247;-82
2024/01/20 09:22:54;;;;;;;17.25;8.90;;;1.80;55.40;;;;;;4980368;28;115071;-82
2024/01/20 09:25:22;;;;;;;16.15;8.32;;;1.80;55.60;;;;;;4954659;28;114781;-82
2024/01/20 09:27:49;;;;;;;15.98;7.43;;;1.80;55.70;;;;;;4930401;28;114379;-82
2024/01/20 09:30:17;;;;;;;15.30;7.93;;;1.90;55.60;;;;;;4947233;28;114512;-82
2024/01/20 09:32:47;;;;;;;12.05;6.80;;;1.90;55.50;;;;;;4946941;28;115084;-82
2024/01/20 09:35:18;;;;;;;16.38;7.75;;;1.90;55.10;;;;;;4947161;28;114803;-83
2024/01/20 09:37:45;;;;;;;16.55;8.20;;;1.90;54.80;;;;;;4973818;28;114590;-82
2024/01/20 09:40:14;;;;;;;15.45;8.10;;;1.90;55.00;;;;;;4986221;28;114235;-82
2024/01/20 09:42:42;;;;;;;18.27;8.80;;;1.90;54.80;;;;;;4964722;28;115095;-82
2024/01/20 09:45:09;;;;;;;17.08;8.30;;;1.90;54.80;;;;;;4947530;28;115027;-82
2024/01/20 09:47:37;;;;;;;16.70;7.80;;;1.90;54.70;;;;;;4970981;28;114599;-82
2024/01/20 09:50:06;;;;;;;16.67;7.63;;;2.00;54.30;;;;;;4966983;28;114584;-80
2024/01/20 09:52:48;;;;;;;15.23;7.75;;;1.90;54.50;;;;;;4964486;28;118995;-81
2024/01/20 09:55:23;;;;;;;14.20;7.45;;;2.00;54.60;;;;;;4979627;28;115728;-81
2024/01/20 09:57:51;;;;;;;17.15;8.13;;;2.00;54.50;;;;;;4966145;28;114269;-81
2024/01/20 10:00:23;;;;;;;12.95;7.15;;;2.10;54.70;;;;;;4990165;28;114660;-82
2024/01/20 10:02:53;;;;;;;19.65;7.82;;;2.10;54.60;;;;;;4985398;28;115187;-82
2024/01/20 10:05:24;;;;;;;12.73;6.28;;;2.10;54.40;;;;;;4964645;28;114582;-81
2024/01/20 10:07:51;;;;;;;18.80;8.10;;;2.20;53.70;;;;;;4964922;28;114786;-82
2024/01/20 10:10:21;;;;;;;11.20;5.95;;;2.10;53.80;;;;;;4962455;28;114779;-82
2024/01/20 10:12:57;;;;;;;8.52;5.10;;;2.10;53.90;;;;;;4973483;28;115910;-80
2024/01/20 10:15:29;;;;;;;12.70;5.68;;;2.10;53.50;;;;;;4951101;28;114785;-82
2024/01/20 10:18:08;;;;;;;10.45;4.85;;;2.10;53.50;;;;;;4981658;28;114279;-81
2024/01/20 10:20:36;;;;;;;12.55;5.25;;;2.00;53.30;;;;;;4982232;28;114678;-81
2024/01/20 10:23:05;;;;;;;12.10;5.57;;;1.90;53.40;;;;;;4965027;28;116202;-80
2024/01/20 10:25:33;;;;;;;9.55;4.70;;;2.00;53.30;;;;;;4954675;28;115255;-81
2024/01/20 10:28:02;;;;;;;11.43;4.70;;;1.90;53.10;;;;;;4985622;28;114622;-82
2024/01/20 10:30:30;;;;;;;12.35;4.75;;;1.80;53.10;;;;;;4984317;28;114422;-81
2024/01/20 10:33:02;;;;;;;10.98;5.07;;;1.80;53.00;;;;;;4964622;28;115099;-81
2024/01/20 10:35:38;;;;;;;11.75;4.60;;;1.70;52.70;;;;;;4965233;28;114603;-82
2024/01/20 10:38:13;;;;;;;13.82;5.78;;;1.70;52.90;;;;;;4966530;28;114236;-82
2024/01/20 10:40:42;;;;;;;10.15;4.78;;;1.60;52.60;;;;;;4980918;28;114240;-80
2024/01/20 10:43:17;;;;;;;11.38;3.92;;;1.50;52.80;;;;;;4979489;28;116703;-83
2024/01/20 10:45:58;;;;;;;;;;;1.60;52.70;;;;;;4964869;28;114570;-80
2024/01/20 10:48:33;;;;;;;10.23;4.38;;;1.60;53.40;;;;;;4964255;28;114475;-81
2024/01/20 10:51:09;;;;;;;8.80;4.28;;;1.60;53.30;;;;;;4946438;28;114496;-81
2024/01/20 10:53:36;;;;;;;14.35;5.78;;;1.60;53.30;;;;;;4945433;28;115861;-82
2024/01/20 10:56:04;;;;;;;9.77;4.78;;;1.60;53.20;;;;;;4946063;28;114577;-82
2024/01/20 10:58:41;;;;;;;8.77;5.00;;;1.60;53.20;;;;;;4945911;28;114371;-82
2024/01/20 11:01:09;;;;;;;10.75;5.13;;;1.60;53.20;;;;;;4950500;28;114238;-82
2024/01/20 11:03:39;;;;;;;12.07;4.70;;;1.60;53.40;;;;;;4964774;28;115844;-83
2024/01/20 11:06:18;;;;;;;9.10;4.55;;;1.70;53.00;;;;;;4947069;28;116941;-83
2024/01/20 11:08:52;;;;;;;8.18;4.57;;;1.70;53.00;;;;;;4964115;28;114446;-84
2024/01/20 11:11:20;;;;;;;11.82;4.90;;;1.70;52.80;;;;;;4964574;28;114545;-81
2024/01/20 11:13:47;;;;;;;8.52;4.00;;;1.70;53.00;;;;;;4962274;28;117514;-80
2024/01/20 11:16:20;;;;;;;11.55;5.35;;;1.70;52.70;;;;;;4982582;28;114701;-82
2024/01/20 11:18:47;;;;;;;11.90;4.65;;;1.70;52.40;;;;;;4964833;28;115178;-81
2024/01/20 11:21:16;;;;;;;9.02;4.88;;;1.60;52.50;;;;;;4969730;28;114315;-81
2024/01/20 11:24:06;;;;;;;12.55;5.28;;;1.70;52.50;;;;;;4967092;28;116375;-82
2024/01/20 11:26:35;;;;;;;9.40;4.45;;;1.70;52.70;;;;;;4978103;28;116824;-82
2024/01/20 11:29:07;;;;;;;8.70;4.60;;;1.70;52.60;;;;;;4983787;28;114114;-81
2024/01/20 11:31:35;;;;;;;12.52;5.03;;;1.70;52.40;;;;;;4970656;28;114478;-82
2024/01/20 11:34:04;;;;;;;12.30;5.45;;;1.70;52.20;;;;;;4984854;28;117939;-81
2024/01/20 11:36:33;;;;;;;10.15;4.93;;;1.70;52.10;;;;;;4983532;28;114603;-81
2024/01/20 11:39:05;;;;;;;10.02;5.43;;;1.70;51.90;;;;;;4962782;28;114534;-82
2024/01/20 11:41:33;;;;;;;8.73;4.70;;;1.60;51.80;;;;;;4967435;28;114355;-81
2024/01/20 11:44:00;;;;;;;8.75;5.05;;;1.60;52.00;;;;;;4951897;28;115372;-81
2024/01/20 11:46:28;;;;;;;9.25;4.70;;;1.50;52.00;;;;;;4966348;28;114757;-81
2024/01/20 11:48:55;;;;;;;10.85;4.85;;;1.50;52.10;;;;;;4962943;28;114668;-81
2024/01/20 11:51:23;;;;;;;9.52;5.15;;;1.60;52.00;;;;;;4967167;28;114753;-81
2024/01/20 11:53:51;;;;;;;9.90;4.50;;;1.60;52.10;;;;;;4982967;28;118416;-82
2024/01/20 11:56:18;;;;;;;11.82;5.68;;;1.60;52.20;;;;;;4978590;28;115923;-81
2024/01/20 11:58:46;;;;;;;8.13;4.50;;;1.60;52.40;;;;;;4966654;28;114466;-81
2024/01/20 12:01:15;;;;;;;7.85;3.97;;;1.60;52.30;;;;;;4968431;28;116499;-83
2024/01/20 12:03:43;;;;;;;8.05;4.53;;;1.70;52.20;;;;;;4954747;28;115123;-81
2024/01/20 12:06:12;;;;;;;9.60;4.95;;;1.70;51.90;;;;;;4982569;28;115958;-81
2024/01/20 12:08:44;;;;;;;13.93;4.93;;;1.60;51.80;;;;;;4982975;28;114202;-81
2024/01/20 12:11:23;;;;;;;9.63;4.63;;;1.60;51.70;;;;;;4968838;28;114290;-80
2024/01/20 12:13:50;;;;;;;10.38;4.47;;;1.60;51.60;;;;;;4966427;28;115134;-82
2024/01/20 12:16:17;;;;;;;9.35;4.40;;;1.60;51.90;;;;;;4966535;28;114800;-81
2024/01/20 12:18:45;;;;;;;11.43;4.97;;;1.60;52.00;;;;;;4967122;28;114641;-83
2024/01/20 12:21:12;;;;;;;10.32;4.90;;;1.70;52.30;;;;;;4982993;28;114432;-81
2024/01/20 12:23:40;;;;;;;11.02;4.40;;;1.70;52.00;;;;;;4965720;28;115371;-82
2024/01/20 12:26:14;;;;;;;8.75;4.50;;;1.70;51.50;;;;;;4965337;28;114512;-84
2024/01/20 12:28:46;;;;;;;8.32;4.28;;;1.70;51.20;;;;;;4981674;28;114920;-82
2024/01/20 12:31:15;;;;;;;8.95;4.70;;;1.60;51.40;;;;;;4957927;28;114628;-81
2024/01/20 12:33:47;;;;;;;10.23;4.20;;;1.60;51.20;;;;;;4949749;28;116373;-81
2024/01/20 12:36:16;;;;;;;10.15;4.97;;;1.50;51.40;;;;;;4923538;28;117367;-82